Time;durP1;ratioP1;P1;durP2;ratioP2;P2;SDS_P1;SDS_P2;PMS_P1;PMS_P2;Temp;Humidity;BMP_temperature;BMP_pressure;BME280_temperature;BME280_humidity;BME280_pressure;Samples;Min_cycle;Max_cycle;Signal;HPM_P1;HPM_P2
2021/08/25 00:00:21;;;;;;;19.52;13.82;;;12.80;99.90;;;;;;5113358;28;20103;-71
2021/08/25 00:02:49;;;;;;;21.65;12.63;;;12.80;99.90;;;;;;5113263;28;20191;-71
2021/08/25 00:05:16;;;;;;;19.30;12.93;;;12.80;99.90;;;;;;5113031;28;20347;-71
2021/08/25 00:07:43;;;;;;;19.30;13.10;;;12.80;99.90;;;;;;5112285;28;20047;-72
2021/08/25 00:10:11;;;;;;;18.13;12.20;;;12.70;99.90;;;;;;5113210;28;20324;-71
2021/08/25 00:12:38;;;;;;;18.75;13.38;;;12.70;99.90;;;;;;5113283;28;20420;-71
2021/08/25 00:15:07;;;;;;;19.67;13.20;;;12.70;99.90;;;;;;5112579;28;20087;-71
2021/08/25 00:17:36;;;;;;;20.17;13.43;;;12.80;99.90;;;;;;5111531;28;20108;-71
2021/08/25 00:20:03;;;;;;;17.55;12.02;;;12.70;99.90;;;;;;5112660;28;20518;-70
2021/08/25 00:22:30;;;;;;;22.52;13.27;;;12.60;99.90;;;;;;5113033;28;20110;-71
2021/08/25 00:24:57;;;;;;;20.75;13.25;;;12.60;99.90;;;;;;5112428;28;20052;-72
2021/08/25 00:27:25;;;;;;;19.27;12.70;;;12.60;99.90;;;;;;5112383;28;20093;-71
2021/08/25 00:29:52;;;;;;;17.40;12.35;;;12.60;99.90;;;;;;5112026;28;20052;-72
2021/08/25 00:32:19;;;;;;;17.10;12.68;;;12.50;99.90;;;;;;5111936;28;20109;-71
2021/08/25 00:34:47;;;;;;;20.50;14.02;;;12.40;99.90;;;;;;5113089;28;20113;-74
2021/08/25 00:37:14;;;;;;;24.20;13.75;;;12.40;99.90;;;;;;5112306;28;20092;-72
2021/08/25 00:39:41;;;;;;;18.20;13.43;;;12.40;99.90;;;;;;5112120;28;20397;-72
2021/08/25 00:42:08;;;;;;;19.85;12.55;;;12.30;99.90;;;;;;5112040;28;20079;-72
2021/08/25 00:44:35;;;;;;;18.50;12.82;;;12.30;99.90;;;;;;5112385;28;20043;-71
2021/08/25 00:47:03;;;;;;;17.33;12.27;;;12.30;99.90;;;;;;5112291;28;20048;-72
2021/08/25 00:49:30;;;;;;;20.38;13.48;;;12.30;99.90;;;;;;5111585;28;20522;-72
2021/08/25 00:51:58;;;;;;;17.73;12.40;;;12.20;99.90;;;;;;5112452;28;20048;-72
2021/08/25 00:54:25;;;;;;;20.63;13.55;;;12.20;99.90;;;;;;5112338;28;20047;-72
2021/08/25 00:56:52;;;;;;;19.13;12.90;;;12.20;99.90;;;;;;5112843;28;20048;-71
2021/08/25 00:59:20;;;;;;;19.70;12.60;;;12.20;99.90;;;;;;5111895;28;20047;-71
2021/08/25 01:01:55;;;;;;;22.75;14.82;;;12.20;99.90;;;;;;5112060;28;20048;-71
2021/08/25 01:04:29;;;;;;;22.90;13.77;;;12.30;99.90;;;;;;5112349;28;20102;-73
2021/08/25 01:06:59;;;;;;;19.98;12.75;;;12.20;99.90;;;;;;5112661;28;20079;-72
2021/08/25 01:09:27;;;;;;;19.48;13.07;;;12.20;99.90;;;;;;5111599;28;20085;-72
2021/08/25 01:11:57;;;;;;;17.48;12.23;;;12.20;99.90;;;;;;5112494;28;20056;-72
2021/08/25 01:14:25;;;;;;;17.40;12.23;;;12.20;99.90;;;;;;5112510;28;20048;-72
2021/08/25 01:16:53;;;;;;;19.30;12.52;;;12.20;99.90;;;;;;5111848;28;20052;-71
2021/08/25 01:19:22;;;;;;;17.90;12.57;;;12.20;99.90;;;;;;5115346;28;20044;-71
2021/08/25 01:21:50;;;;;;;17.30;12.48;;;12.20;99.90;;;;;;5115645;28;20051;-71
2021/08/25 01:24:19;;;;;;;17.63;11.73;;;12.20;99.90;;;;;;5116073;28;20054;-71
2021/08/25 01:26:50;;;;;;;20.13;12.75;;;12.20;99.90;;;;;;5116005;28;20093;-71
2021/08/25 01:29:24;;;;;;;19.75;12.30;;;12.10;99.90;;;;;;5115584;28;20052;-71
2021/08/25 01:31:52;;;;;;;17.23;13.05;;;12.10;99.90;;;;;;5116224;28;20048;-71
2021/08/25 01:34:19;;;;;;;18.85;13.32;;;12.10;99.90;;;;;;5115863;28;20051;-71
2021/08/25 01:36:50;;;;;;;20.70;14.48;;;12.10;99.90;;;;;;5115813;28;20052;-73
2021/08/25 01:39:17;;;;;;;20.77;14.85;;;12.10;99.90;;;;;;5115806;28;20244;-71
2021/08/25 01:41:44;;;;;;;20.85;14.95;;;12.10;99.90;;;;;;5116476;28;20052;-71
2021/08/25 01:44:11;;;;;;;21.27;14.05;;;12.10;99.90;;;;;;5115931;28;20416;-72
2021/08/25 01:46:41;;;;;;;21.35;14.48;;;12.10;99.90;;;;;;5115238;28;20105;-71
2021/08/25 01:49:10;;;;;;;22.55;14.75;;;12.10;99.90;;;;;;5115299;28;20054;-71
2021/08/25 01:51:38;;;;;;;21.70;14.27;;;12.10;99.90;;;;;;5115608;28;20056;-71
2021/08/25 01:54:06;;;;;;;20.95;14.13;;;12.10;99.90;;;;;;5115428;28;20077;-72
2021/08/25 01:56:33;;;;;;;20.75;14.40;;;12.00;99.90;;;;;;5115696;28;20108;-71
2021/08/25 01:59:02;;;;;;;23.33;14.35;;;12.00;99.90;;;;;;5115338;28;20096;-72
2021/08/25 02:01:29;;;;;;;21.67;14.98;;;12.00;99.90;;;;;;5115389;28;20063;-71
2021/08/25 02:03:59;;;;;;;55.63;18.73;;;12.00;99.90;;;;;;5116183;28;20056;-72
2021/08/25 02:06:26;;;;;;;36.70;17.85;;;12.00;99.90;;;;;;5115459;28;20044;-71
2021/08/25 02:08:53;;;;;;;91.80;21.65;;;12.00;99.90;;;;;;5114695;28;20487;-72
2021/08/25 02:11:20;;;;;;;40.42;19.58;;;12.00;99.90;;;;;;5115709;28;20048;-71
2021/08/25 02:13:47;;;;;;;48.40;20.15;;;11.90;99.90;;;;;;5114917;28;20108;-72
2021/08/25 02:16:14;;;;;;;37.25;19.25;;;11.90;99.90;;;;;;5115225;28;20056;-71
2021/08/25 02:18:41;;;;;;;30.02;17.27;;;11.90;99.90;;;;;;5114558;28;20097;-72
2021/08/25 02:21:10;;;;;;;30.80;18.17;;;11.90;99.90;;;;;;5115980;28;20560;-71
2021/08/25 02:23:37;;;;;;;27.27;17.15;;;11.90;99.90;;;;;;5115142;28;20054;-71
2021/08/25 02:26:04;;;;;;;25.92;17.60;;;11.80;99.90;;;;;;5114990;28;20127;-72
2021/08/25 02:28:31;;;;;;;30.83;16.73;;;11.80;99.90;;;;;;5113616;28;20404;-71
2021/08/25 02:30:58;;;;;;;37.20;18.05;;;11.90;99.90;;;;;;5114632;28;20051;-72
2021/08/25 02:33:25;;;;;;;53.00;19.40;;;11.90;99.90;;;;;;5115305;28;20055;-71
2021/08/25 02:35:52;;;;;;;42.40;18.42;;;11.90;99.90;;;;;;5115577;28;20097;-71
2021/08/25 02:38:20;;;;;;;54.65;20.45;;;11.80;99.90;;;;;;5114000;28;20059;-71
2021/08/25 02:40:49;;;;;;;49.95;21.20;;;11.70;99.90;;;;;;5115008;28;20439;-71
2021/08/25 02:43:15;;;;;;;44.95;20.83;;;11.70;99.90;;;;;;5114846;28;20047;-71
2021/08/25 02:45:42;;;;;;;55.50;23.85;;;11.70;99.90;;;;;;5115156;28;20576;-71
2021/08/25 02:48:09;;;;;;;31.75;18.98;;;11.70;99.90;;;;;;5114647;28;20061;-71
2021/08/25 02:50:37;;;;;;;27.10;17.88;;;11.70;99.90;;;;;;5115572;28;20047;-71
2021/08/25 02:53:04;;;;;;;32.83;18.85;;;11.70;99.90;;;;;;5115073;28;20047;-71
2021/08/25 02:55:32;;;;;;;32.47;19.90;;;11.70;99.90;;;;;;5114581;28;20047;-71
2021/08/25 02:57:59;;;;;;;30.33;17.30;;;11.80;99.90;;;;;;5114173;28;20056;-71
2021/08/25 03:00:27;;;;;;;26.27;17.30;;;11.70;99.90;;;;;;5114543;28;20048;-71
2021/08/25 03:02:54;;;;;;;25.05;16.17;;;11.80;99.90;;;;;;5114861;28;20052;-71
2021/08/25 03:05:21;;;;;;;28.58;17.35;;;11.70;99.90;;;;;;5115339;28;20039;-71
2021/08/25 03:07:48;;;;;;;50.13;17.92;;;11.80;99.90;;;;;;5114127;28;20056;-71
2021/08/25 03:10:15;;;;;;;91.15;19.80;;;11.80;99.90;;;;;;5115335;28;20043;-72
2021/08/25 03:12:43;;;;;;;37.55;18.98;;;11.70;99.90;;;;;;5114768;28;20373;-71
2021/08/25 03:15:11;;;;;;;37.00;18.17;;;11.70;99.90;;;;;;5114741;28;20081;-71
2021/08/25 03:17:38;;;;;;;38.85;19.05;;;11.70;99.90;;;;;;5114044;28;20112;-71
2021/08/25 03:20:07;;;;;;;52.17;20.48;;;11.70;99.90;;;;;;5114785;28;20054;-71
2021/08/25 03:22:34;;;;;;;53.08;20.65;;;11.70;99.90;;;;;;5114345;28;20051;-71
2021/08/25 03:25:01;;;;;;;45.30;19.60;;;11.80;99.90;;;;;;5114687;28;20055;-71
2021/08/25 03:27:28;;;;;;;45.72;20.85;;;11.70;99.90;;;;;;5113960;28;20047;-71
2021/08/25 03:29:57;;;;;;;55.53;20.42;;;11.80;99.90;;;;;;5113994;28;20560;-71
2021/08/25 03:32:24;;;;;;;44.53;18.48;;;11.90;99.90;;;;;;5114119;28;20487;-71
2021/08/25 03:34:51;;;;;;;51.35;19.02;;;11.90;99.90;;;;;;5113977;28;20073;-71
2021/08/25 03:37:18;;;;;;;126.90;21.83;;;11.80;99.90;;;;;;5113777;28;20100;-71
2021/08/25 03:39:45;;;;;;;40.15;19.35;;;11.80;99.90;;;;;;5113403;28;20082;-71
2021/08/25 03:42:13;;;;;;;41.55;17.80;;;11.80;99.90;;;;;;5114005;28;20048;-72
2021/08/25 03:44:40;;;;;;;31.48;17.38;;;11.90;99.90;;;;;;5114321;28;20097;-71
2021/08/25 03:47:09;;;;;;;28.42;16.52;;;11.80;99.90;;;;;;5114124;28;20086;-71
2021/08/25 03:49:37;;;;;;;34.25;17.38;;;11.70;99.90;;;;;;5112880;28;20055;-71
2021/08/25 03:52:05;;;;;;;26.45;16.85;;;11.80;99.90;;;;;;5114120;28;20124;-72
2021/08/25 03:54:32;;;;;;;29.83;17.17;;;11.80;99.90;;;;;;5113985;28;20104;-71
2021/08/25 03:56:59;;;;;;;30.05;16.55;;;11.80;99.90;;;;;;5113532;28;20062;-71
2021/08/25 03:59:26;;;;;;;26.40;14.60;;;11.80;99.90;;;;;;5112420;28;20450;-71
2021/08/25 04:01:53;;;;;;;45.08;17.60;;;11.80;99.90;;;;;;5113536;28;20047;-71
2021/08/25 04:04:22;;;;;;;67.88;17.48;;;11.80;99.90;;;;;;5113413;28;20108;-71
2021/08/25 04:06:48;;;;;;;172.02;22.40;;;11.80;99.90;;;;;;5114040;28;20047;-70
2021/08/25 04:09:15;;;;;;;44.85;16.75;;;11.70;99.90;;;;;;5113257;28;20068;-72
2021/08/25 04:11:42;;;;;;;33.28;16.55;;;11.70;99.90;;;;;;5113607;28;20101;-71
2021/08/25 04:14:10;;;;;;;30.42;15.52;;;11.70;99.90;;;;;;5113608;28;20059;-71
2021/08/25 04:16:37;;;;;;;23.83;15.68;;;11.70;99.90;;;;;;5113423;28;20047;-71
2021/08/25 04:19:04;;;;;;;27.58;15.15;;;11.70;99.90;;;;;;5112814;28;20104;-71
2021/08/25 04:21:32;;;;;;;104.70;18.27;;;11.80;99.90;;;;;;5113909;28;20379;-71
2021/08/25 04:23:59;;;;;;;35.63;15.77;;;11.70;99.90;;;;;;5113869;28;20473;-71
2021/08/25 04:26:26;;;;;;;27.70;16.05;;;11.70;99.90;;;;;;5113392;28;20043;-72
2021/08/25 04:28:53;;;;;;;29.60;16.20;;;11.70;99.90;;;;;;5112646;28;20043;-71
2021/08/25 04:31:20;;;;;;;49.80;17.15;;;11.70;99.90;;;;;;5112779;28;20052;-70
2021/08/25 04:33:47;;;;;;;41.70;15.77;;;11.70;99.90;;;;;;5113304;28;20050;-72
2021/08/25 04:36:14;;;;;;;26.85;14.35;;;11.70;99.90;;;;;;5113194;28;20047;-71
2021/08/25 04:38:43;;;;;;;31.20;13.65;;;11.80;99.90;;;;;;5112274;28;20450;-72
2021/08/25 04:41:10;;;;;;;33.38;13.88;;;11.80;99.90;;;;;;5113429;28;20047;-71
2021/08/25 04:43:37;;;;;;;29.58;14.32;;;11.70;99.90;;;;;;5113227;28;20055;-71
2021/08/25 04:46:04;;;;;;;21.65;13.30;;;11.70;99.90;;;;;;5113453;28;20051;-70
2021/08/25 04:48:43;;;;;;;32.72;13.50;;;11.80;99.90;;;;;;5112406;28;20048;-71
2021/08/25 04:51:11;;;;;;;20.52;12.65;;;11.70;99.90;;;;;;5113187;28;20051;-71
2021/08/25 04:53:39;;;;;;;21.40;12.25;;;11.80;99.90;;;;;;5115887;28;20065;-71
2021/08/25 04:56:07;;;;;;;43.25;14.60;;;11.80;99.90;;;;;;5116946;28;20137;-71
2021/08/25 04:58:35;;;;;;;31.63;14.07;;;11.80;99.90;;;;;;5116897;28;20044;-71
2021/08/25 05:01:02;;;;;;;48.38;14.90;;;11.70;99.90;;;;;;5116951;28;20105;-72
2021/08/25 05:03:29;;;;;;;63.08;16.13;;;11.80;99.90;;;;;;5117176;28;20093;-71
2021/08/25 05:05:56;;;;;;;34.38;14.40;;;11.70;99.90;;;;;;5116698;28;20392;-73
2021/08/25 05:08:23;;;;;;;37.53;14.38;;;11.80;99.90;;;;;;5115939;28;20495;-71
2021/08/25 05:10:50;;;;;;;25.50;12.32;;;11.90;99.90;;;;;;5117602;28;20090;-71
2021/08/25 05:13:19;;;;;;;44.92;13.18;;;11.90;99.90;;;;;;5117838;28;20047;-71
2021/08/25 05:15:46;;;;;;;31.05;12.45;;;11.90;99.90;;;;;;5117674;28;20572;-71
2021/08/25 05:18:13;;;;;;;27.80;12.75;;;11.80;99.90;;;;;;5117167;28;20043;-72
2021/08/25 05:20:40;;;;;;;22.55;11.82;;;11.80;99.90;;;;;;5116899;28;20102;-71
2021/08/25 05:23:07;;;;;;;26.98;11.55;;;11.80;99.90;;;;;;5117192;28;20100;-72
2021/08/25 05:25:34;;;;;;;21.67;11.77;;;11.80;99.90;;;;;;5116672;28;20044;-71
2021/08/25 05:28:01;;;;;;;19.73;12.30;;;11.80;99.90;;;;;;5116148;28;20085;-71
2021/08/25 05:30:30;;;;;;;17.70;11.45;;;11.70;99.90;;;;;;5116630;28;20058;-71
2021/08/25 05:32:57;;;;;;;23.40;12.48;;;11.90;99.90;;;;;;5115847;28;20051;-71
2021/08/25 05:35:24;;;;;;;20.48;10.95;;;11.80;99.90;;;;;;5116721;28;20074;-71
2021/08/25 05:37:52;;;;;;;18.02;11.73;;;11.90;99.90;;;;;;5115991;28;20047;-74
2021/08/25 05:40:19;;;;;;;24.45;11.82;;;12.00;99.90;;;;;;5115939;28;20051;-73
2021/08/25 05:42:47;;;;;;;17.55;10.93;;;12.10;99.90;;;;;;5116070;28;20047;-71
2021/08/25 05:45:15;;;;;;;16.85;10.73;;;12.10;99.90;;;;;;5116173;28;20116;-72
2021/08/25 05:47:43;;;;;;;23.70;11.48;;;12.10;99.90;;;;;;5114983;28;20043;-72
2021/08/25 05:50:11;;;;;;;14.85;9.85;;;12.10;99.90;;;;;;5115776;28;20048;-72
2021/08/25 05:52:38;;;;;;;13.10;9.15;;;12.10;99.90;;;;;;5115801;28;20065;-71
2021/08/25 05:55:06;;;;;;;16.58;9.75;;;12.00;99.90;;;;;;5115659;28;20052;-72
2021/08/25 05:57:33;;;;;;;13.18;8.77;;;12.00;99.90;;;;;;5115490;28;20055;-71
2021/08/25 06:00:00;;;;;;;25.00;9.98;;;12.10;99.90;;;;;;5116076;28;20044;-71
2021/08/25 06:02:28;;;;;;;14.65;9.13;;;12.10;99.90;;;;;;5115527;28;20505;-73
2021/08/25 06:04:56;;;;;;;21.75;10.07;;;12.20;99.90;;;;;;5115367;28;20105;-71
2021/08/25 06:07:23;;;;;;;33.22;11.65;;;12.10;99.90;;;;;;5114954;28;20100;-72
2021/08/25 06:09:50;;;;;;;17.75;10.75;;;12.10;99.90;;;;;;5115016;28;20388;-72
2021/08/25 06:12:17;;;;;;;17.55;9.95;;;12.20;99.90;;;;;;5115584;28;20405;-72
2021/08/25 06:14:44;;;;;;;15.18;9.65;;;12.40;99.90;;;;;;5115159;28;20453;-72
2021/08/25 06:17:11;;;;;;;15.30;8.98;;;12.50;99.90;;;;;;5114861;28;20051;-73
2021/08/25 06:19:38;;;;;;;13.93;9.75;;;12.60;99.90;;;;;;5114758;28;20051;-72
2021/08/25 06:22:06;;;;;;;15.10;9.45;;;12.50;99.90;;;;;;5115297;28;20048;-72
2021/08/25 06:24:33;;;;;;;15.23;9.82;;;12.50;99.90;;;;;;5115036;28;20051;-72
2021/08/25 06:27:01;;;;;;;16.33;9.43;;;12.50;99.90;;;;;;5114801;28;20043;-73
2021/08/25 06:29:28;;;;;;;12.45;8.65;;;12.60;99.90;;;;;;5114328;28;20664;-72
2021/08/25 06:31:55;;;;;;;19.42;8.55;;;12.70;99.90;;;;;;5114386;28;20051;-73
2021/08/25 06:34:22;;;;;;;10.98;7.63;;;12.70;99.90;;;;;;5114999;28;20044;-72
2021/08/25 06:36:49;;;;;;;13.35;8.45;;;12.80;99.90;;;;;;5114590;28;20535;-71
2021/08/25 06:39:18;;;;;;;18.25;8.55;;;12.80;99.90;;;;;;5113977;28;20051;-73
2021/08/25 06:41:45;;;;;;;19.33;8.27;;;12.80;99.90;;;;;;5114406;28;20047;-72
2021/08/25 06:44:12;;;;;;;14.30;8.25;;;12.80;99.90;;;;;;5114045;28;20427;-73
2021/08/25 06:46:39;;;;;;;15.70;8.50;;;12.90;99.90;;;;;;5114156;28;20051;-73
2021/08/25 06:49:06;;;;;;;16.80;8.05;;;13.00;99.90;;;;;;5113592;28;20055;-73
2021/08/25 06:51:33;;;;;;;12.95;7.15;;;13.00;99.90;;;;;;5113909;28;20052;-73
2021/08/25 06:54:00;;;;;;;13.98;6.57;;;13.20;99.90;;;;;;5114008;28;20392;-72
2021/08/25 06:56:29;;;;;;;11.82;7.15;;;13.20;99.90;;;;;;5114208;28;20050;-72
2021/08/25 06:58:55;;;;;;;11.15;7.07;;;13.30;99.90;;;;;;5113768;28;20520;-75
2021/08/25 07:01:22;;;;;;;13.05;7.03;;;13.40;99.90;;;;;;5114368;28;20056;-72
2021/08/25 07:03:49;;;;;;;11.98;6.90;;;13.40;99.90;;;;;;5113982;28;20069;-73
2021/08/25 07:06:16;;;;;;;16.15;7.95;;;13.40;99.90;;;;;;5114117;28;20048;-73
2021/08/25 07:08:43;;;;;;;11.10;7.65;;;13.50;99.90;;;;;;5113013;28;20043;-72
2021/08/25 07:11:11;;;;;;;10.88;7.95;;;13.60;99.90;;;;;;5113760;28;20050;-72
2021/08/25 07:13:39;;;;;;;12.07;7.53;;;13.60;99.90;;;;;;5114227;28;20062;-72
2021/08/25 07:16:07;;;;;;;12.45;7.53;;;13.60;99.90;;;;;;5112788;28;20112;-72
2021/08/25 07:18:34;;;;;;;14.80;7.75;;;13.70;99.90;;;;;;5113132;28;20061;-72
2021/08/25 07:21:03;;;;;;;12.35;7.80;;;13.80;99.90;;;;;;5113430;28;20059;-72
2021/08/25 07:23:30;;;;;;;11.45;7.05;;;13.90;99.90;;;;;;5113174;28;20427;-72
2021/08/25 07:25:58;;;;;;;13.38;7.25;;;14.00;99.90;;;;;;5113880;28;20561;-72
2021/08/25 07:28:25;;;;;;;10.65;6.53;;;14.10;99.90;;;;;;5112883;28;20050;-71
2021/08/25 07:30:53;;;;;;;11.88;7.20;;;14.20;99.90;;;;;;5113704;28;20100;-72
2021/08/25 07:33:22;;;;;;;12.98;6.88;;;14.30;99.90;;;;;;5113919;28;20048;-72
2021/08/25 07:35:49;;;;;;;11.82;7.28;;;14.50;99.90;;;;;;5113437;28;20112;-71
2021/08/25 07:38:17;;;;;;;12.15;6.85;;;14.50;99.90;;;;;;5112682;28;20051;-71
2021/08/25 07:40:44;;;;;;;13.60;7.07;;;14.60;99.90;;;;;;5113135;28;20496;-72
2021/08/25 07:43:12;;;;;;;12.90;7.07;;;14.70;99.90;;;;;;5113356;28;20059;-72
2021/08/25 07:45:39;;;;;;;10.60;6.38;;;14.80;99.90;;;;;;5113452;28;20096;-71
2021/08/25 07:48:07;;;;;;;12.25;6.57;;;14.80;99.90;;;;;;5112794;28;20085;-72
2021/08/25 07:50:35;;;;;;;11.35;6.60;;;14.90;99.90;;;;;;5113085;28;20048;-71
2021/08/25 07:53:02;;;;;;;14.38;6.47;;;15.20;99.90;;;;;;5112885;28;20059;-72
2021/08/25 07:55:29;;;;;;;18.05;6.18;;;15.40;99.90;;;;;;5112975;28;20051;-72
2021/08/25 07:57:56;;;;;;;11.93;5.80;;;15.50;99.90;;;;;;5112481;28;20153;-72
2021/08/25 08:00:23;;;;;;;10.55;6.43;;;15.60;99.90;;;;;;5113150;28;20388;-71
2021/08/25 08:02:50;;;;;;;14.13;5.78;;;15.60;99.90;;;;;;5113150;28;20051;-71
2021/08/25 08:05:19;;;;;;;11.60;5.45;;;15.90;99.90;;;;;;5112566;28;20565;-71
2021/08/25 08:07:46;;;;;;;13.25;6.53;;;16.10;99.90;;;;;;5111515;28;20101;-72
2021/08/25 08:10:13;;;;;;;15.27;6.53;;;16.20;99.90;;;;;;5112646;28;20051;-72
2021/08/25 08:12:41;;;;;;;10.23;5.38;;;16.30;99.90;;;;;;5112439;28;20560;-73
2021/08/25 08:15:11;;;;;;;12.80;5.43;;;16.50;99.90;;;;;;5112369;28;20047;-72
2021/08/25 08:17:42;;;;;;;13.80;5.75;;;16.40;99.90;;;;;;5111529;28;20572;-72
2021/08/25 08:20:10;;;;;;;14.68;6.25;;;16.70;99.90;;;;;;5112945;28;20056;-76
2021/08/25 08:22:38;;;;;;;10.77;5.93;;;16.90;99.90;;;;;;5112076;28;20051;-72
2021/08/25 08:25:07;;;;;;;9.00;5.47;;;17.20;99.90;;;;;;5111616;28;20100;-72
2021/08/25 08:27:34;;;;;;;16.33;6.05;;;17.40;99.90;;;;;;5109920;28;20048;-72
2021/08/25 08:30:01;;;;;;;14.65;5.20;;;17.70;99.90;;;;;;5110527;28;20553;-73
2021/08/25 08:32:28;;;;;;;15.02;5.07;;;18.00;99.90;;;;;;5110594;28;20461;-72
2021/08/25 08:34:55;;;;;;;13.85;5.95;;;18.40;99.90;;;;;;5110713;28;20045;-72
2021/08/25 08:37:22;;;;;;;9.63;5.50;;;18.80;99.90;;;;;;5110219;28;20059;-71
2021/08/25 08:39:51;;;;;;;16.88;5.50;;;18.80;99.90;;;;;;5110161;28;20108;-71
2021/08/25 08:42:29;;;;;;;10.60;4.90;;;19.70;99.90;;;;;;5109738;28;20492;-71
2021/08/25 08:44:57;;;;;;;13.60;5.22;;;20.60;99.90;;;;;;5109364;28;20519;-68
2021/08/25 08:47:25;;;;;;;10.18;5.63;;;21.70;99.90;;;;;;5109067;28;20523;-69
2021/08/25 08:49:54;;;;;;;12.13;6.13;;;22.50;99.90;;;;;;5109265;28;20240;-71
2021/08/25 08:52:21;;;;;;;12.93;5.88;;;23.40;99.90;;;;;;5109168;28;20138;-69
2021/08/25 08:54:51;;;;;;;14.85;5.88;;;24.40;99.90;;;;;;5109396;28;20047;-70
2021/08/25 08:57:18;;;;;;;11.73;5.88;;;25.00;99.90;;;;;;5108724;28;20565;-70
2021/08/25 08:59:45;;;;;;;10.93;5.28;;;25.60;99.90;;;;;;5108925;28;20107;-70
2021/08/25 09:02:13;;;;;;;12.05;5.65;;;25.90;99.90;;;;;;5109371;28;20055;-70
2021/08/25 09:04:46;;;;;;;11.30;5.65;;;26.50;99.90;;;;;;5109035;28;20055;-70
2021/08/25 09:07:20;;;;;;;11.27;6.07;;;27.20;99.90;;;;;;5108564;28;20048;-71
2021/08/25 09:09:55;;;;;;;9.88;5.72;;;27.50;99.90;;;;;;5108395;28;20421;-70
2021/08/25 09:12:23;;;;;;;10.13;5.72;;;27.90;99.90;;;;;;5109036;28;20109;-70
2021/08/25 09:14:50;;;;;;;10.52;5.78;;;28.30;99.90;;;;;;5108918;28;20415;-70
2021/08/25 09:17:28;;;;;;;9.63;5.82;;;28.80;99.90;;;;;;5108868;28;20097;-70
2021/08/25 09:20:07;;;;;;;10.07;6.10;;;29.50;99.90;;;;;;5108573;28;20401;-70
2021/08/25 09:22:34;;;;;;;11.48;5.47;;;29.90;99.90;;;;;;5109236;28;20043;-71
2021/08/25 09:25:03;;;;;;;10.05;5.88;;;30.20;99.90;;;;;;5109068;28;20060;-71
2021/08/25 09:27:31;;;;;;;10.07;5.57;;;30.40;99.50;;;;;;5108566;28;20048;-71
2021/08/25 09:30:00;;;;;;;10.13;6.57;;;30.50;99.90;;;;;;5108788;28;20052;-71
2021/08/25 09:32:29;;;;;;;10.95;6.47;;;30.90;98.70;;;;;;5108638;28;20062;-71
2021/08/25 09:34:57;;;;;;;13.07;7.28;;;30.80;95.20;;;;;;5108654;28;20044;-71
2021/08/25 09:37:26;;;;;;;11.45;6.47;;;31.20;95.30;;;;;;5108808;28;20553;-71
2021/08/25 09:39:54;;;;;;;10.52;6.53;;;31.40;93.40;;;;;;5111507;28;20108;-71
2021/08/25 09:42:24;;;;;;;11.45;6.47;;;31.50;92.60;;;;;;5112634;28;20131;-71
2021/08/25 09:45:01;;;;;;;9.40;5.88;;;31.70;92.60;;;;;;5112250;28;20089;-71
2021/08/25 09:47:47;;;;;;;10.98;5.93;;;32.20;92.70;;;;;;5112205;28;20108;-71
2021/08/25 09:50:16;;;;;;;9.80;5.47;;;32.30;90.00;;;;;;5112597;28;20077;-71
2021/08/25 09:52:43;;;;;;;10.38;6.25;;;32.30;88.50;;;;;;5112697;28;20051;-71
2021/08/25 09:55:11;;;;;;;11.10;5.93;;;32.00;88.20;;;;;;5112394;28;20143;-71
2021/08/25 09:57:40;;;;;;;10.85;6.30;;;30.10;90.10;;;;;;5111548;28;20104;-71
2021/08/25 10:00:09;;;;;;;13.45;6.28;;;28.90;89.80;;;;;;5112422;28;20104;-71
2021/08/25 10:02:36;;;;;;;11.50;6.55;;;27.70;90.70;;;;;;5112251;28;20465;-71
2021/08/25 10:05:05;;;;;;;12.30;6.38;;;26.50;91.70;;;;;;5112338;28;20128;-71
2021/08/25 10:07:33;;;;;;;12.90;6.18;;;25.50;94.40;;;;;;5111787;28;20466;-71
2021/08/25 10:10:00;;;;;;;10.80;6.07;;;25.40;95.10;;;;;;5111932;28;20104;-71
2021/08/25 10:12:27;;;;;;;14.57;6.13;;;26.60;95.40;;;;;;5112481;28;20059;-71
2021/08/25 10:14:56;;;;;;;10.73;5.72;;;26.80;94.80;;;;;;5112163;28;20051;-72
2021/08/25 10:17:40;;;;;;;14.35;6.35;;;26.70;95.20;;;;;;5111969;28;20511;-71
2021/08/25 10:20:34;;;;;;;11.32;6.55;;;28.00;94.80;;;;;;5111822;28;20048;-71
2021/08/25 10:23:02;;;;;;;11.00;6.07;;;28.60;94.00;;;;;;5112113;28;20139;-71
2021/08/25 10:25:29;;;;;;;10.23;5.78;;;29.60;93.80;;;;;;5111958;28;20503;-71
2021/08/25 10:28:05;;;;;;;11.15;5.70;;;30.50;92.40;;;;;;5111155;28;20079;-71
2021/08/25 10:30:55;;;;;;;11.32;6.13;;;31.50;91.40;;;;;;5111966;28;20048;-71
2021/08/25 10:33:22;;;;;;;11.48;6.55;;;31.90;89.00;;;;;;5111728;28;20043;-71
2021/08/25 10:35:49;;;;;;;12.40;6.88;;;32.00;88.80;;;;;;5111821;28;20094;-71
2021/08/25 10:38:21;;;;;;;15.00;6.03;;;31.50;88.70;;;;;;5111058;28;20052;-71
2021/08/25 10:40:50;;;;;;;10.70;6.18;;;32.10;90.10;;;;;;5111635;28;20108;-71
2021/08/25 10:43:40;;;;;;;11.68;6.07;;;31.40;86.50;;;;;;5111353;28;20104;-71
2021/08/25 10:46:10;;;;;;;11.07;6.00;;;29.90;89.70;;;;;;5111527;28;20051;-72
2021/08/25 10:48:51;;;;;;;13.30;6.43;;;29.00;90.70;;;;;;5110745;28;20113;-71
2021/08/25 10:51:33;;;;;;;13.38;6.63;;;28.10;91.40;;;;;;5110481;28;20568;-71
2021/08/25 10:54:01;;;;;;;12.60;6.35;;;27.50;91.70;;;;;;5111153;28;20439;-72
2021/08/25 10:56:48;;;;;;;13.55;6.18;;;27.20;93.10;;;;;;5111178;28;20088;-72
2021/08/25 10:59:20;;;;;;;11.80;5.68;;;26.60;92.80;;;;;;5111074;28;20086;-71
2021/08/25 11:01:50;;;;;;;12.52;5.75;;;26.30;94.40;;;;;;5111515;28;20052;-71
2021/08/25 11:04:18;;;;;;;12.43;5.80;;;27.60;93.80;;;;;;5111097;28;20058;-71
2021/08/25 11:06:49;;;;;;;11.52;5.88;;;28.90;92.20;;;;;;5111263;28;20063;-73
2021/08/25 11:09:31;;;;;;;10.68;5.65;;;29.80;90.60;;;;;;5110363;28;20051;-73
2021/08/25 11:12:03;;;;;;;11.77;5.75;;;30.40;89.80;;;;;;5111066;28;20043;-73
2021/08/25 11:14:33;;;;;;;10.38;5.55;;;29.80;87.70;;;;;;5111124;28;20112;-73
2021/08/25 11:17:08;;;;;;;10.25;5.90;;;30.20;89.90;;;;;;5110659;28;20121;-73
2021/08/25 11:19:39;;;;;;;12.95;6.07;;;30.20;89.00;;;;;;5110637;28;20047;-73
2021/08/25 11:22:07;;;;;;;9.60;5.07;;;31.10;88.40;;;;;;5111132;28;20116;-73
2021/08/25 11:24:46;;;;;;;11.32;5.75;;;31.20;89.20;;;;;;5110777;28;20755;-72
2021/08/25 11:27:24;;;;;;;11.90;5.70;;;31.70;84.80;;;;;;5110021;28;20051;-73
2021/08/25 11:30:13;;;;;;;12.57;6.70;;;32.10;84.40;;;;;;5110487;28;20104;-73
2021/08/25 11:32:47;;;;;;;12.45;6.22;;;31.70;83.40;;;;;;5110670;28;20104;-72
2021/08/25 11:35:21;;;;;;;13.07;6.63;;;30.80;82.20;;;;;;5110745;28;20059;-72
2021/08/25 11:37:48;;;;;;;10.98;5.82;;;31.30;82.20;;;;;;5109697;28;20105;-73
2021/08/25 11:40:15;;;;;;;12.50;7.20;;;31.40;81.70;;;;;;5110595;28;20044;-72
2021/08/25 11:42:42;;;;;;;10.20;5.78;;;30.40;80.20;;;;;;5110392;28;20044;-72
2021/08/25 11:45:17;;;;;;;10.82;6.30;;;30.30;82.30;;;;;;5110257;28;20435;-72
2021/08/25 11:47:50;;;;;;;9.60;5.50;;;30.90;80.20;;;;;;5109504;28;20088;-73
2021/08/25 11:50:19;;;;;;;11.57;6.18;;;29.10;82.60;;;;;;5110111;28;20065;-72
2021/08/25 11:52:46;;;;;;;11.57;5.93;;;28.10;85.20;;;;;;5110294;28;20054;-72
2021/08/25 11:55:15;;;;;;;10.05;5.88;;;28.20;86.20;;;;;;5110421;28;20524;-73
2021/08/25 11:57:43;;;;;;;10.48;5.90;;;27.40;86.40;;;;;;5109373;28;20081;-72
2021/08/25 12:00:12;;;;;;;10.82;5.65;;;26.90;87.40;;;;;;5110161;28;20131;-73
2021/08/25 12:02:57;;;;;;;12.20;5.95;;;26.20;88.50;;;;;;5109357;28;20167;-73
2021/08/25 12:05:26;;;;;;;11.18;5.85;;;25.90;88.60;;;;;;5110097;28;20055;-73
2021/08/25 12:08:07;;;;;;;11.05;5.45;;;26.00;90.10;;;;;;5109515;28;20075;-70
2021/08/25 12:10:36;;;;;;;12.38;5.43;;;25.90;90.40;;;;;;5109928;28;20619;-71
2021/08/25 12:13:03;;;;;;;10.50;5.57;;;26.00;91.20;;;;;;5109755;28;20047;-71
2021/08/25 12:15:57;;;;;;;10.32;5.10;;;26.70;90.50;;;;;;5110195;28;20104;-73
2021/08/25 12:18:28;;;;;;;12.05;5.97;;;27.80;90.50;;;;;;5061073;28;20051;-73
2021/08/25 12:20:56;;;;;;;10.15;5.35;;;28.90;87.30;;;;;;5110020;28;20438;-73
2021/08/25 12:23:26;;;;;;;10.43;5.50;;;29.10;87.80;;;;;;5109848;28;20483;-73
2021/08/25 12:25:54;;;;;;;10.60;5.80;;;29.50;85.70;;;;;;5109377;28;20051;-73
2021/08/25 12:28:33;;;;;;;14.40;6.45;;;30.50;86.40;;;;;;5109187;28;20051;-73
2021/08/25 12:31:14;;;;;;;10.18;6.00;;;30.50;83.00;;;;;;5109610;28;20419;-73
2021/08/25 12:33:42;;;;;;;13.50;5.75;;;29.90;83.40;;;;;;5109570;28;20077;-73
2021/08/25 12:36:27;;;;;;;10.52;5.82;;;30.30;80.90;;;;;;5109263;28;20047;-73
2021/08/25 12:38:55;;;;;;;10.40;5.82;;;30.50;83.00;;;;;;5108674;28;20051;-74
2021/08/25 12:41:23;;;;;;;10.65;5.90;;;30.50;80.00;;;;;;5109503;28;20073;-73